createdAt,value
2023-06-15T00:01:05.834Z,21.35
2023-06-15T00:03:33.398Z,21.87
2023-06-15T00:06:00.839Z,21.14
2023-06-15T00:08:28.269Z,21.58
2023-06-15T00:10:55.617Z,21.97
2023-06-15T00:13:22.779Z,21.04
2023-06-15T00:15:49.925Z,21.04
2023-06-15T00:18:18.637Z,21.73
2023-06-15T00:20:46.456Z,21.71
2023-06-15T00:23:13.767Z,22.06
2023-06-15T00:25:40.875Z,21.66
2023-06-15T00:29:04.094Z,21.90
2023-06-15T00:31:31.352Z,21.20
2023-06-15T00:33:58.642Z,20.69
2023-06-15T00:36:25.842Z,21.15
2023-06-15T00:38:52.992Z,20.65
2023-06-15T00:41:20.174Z,20.27
2023-06-15T00:43:47.331Z,20.43
2023-06-15T00:46:16.068Z,20.71
2023-06-15T00:48:43.450Z,20.18
2023-06-15T00:51:13.174Z,20.25
2023-06-15T00:53:40.384Z,20.56
2023-06-15T00:56:08.191Z,20.86
2023-06-15T00:58:36.828Z,19.96
2023-06-15T01:01:04.347Z,20.54
2023-06-15T01:03:32.361Z,20.43
2023-06-15T01:06:01.085Z,20.30
2023-06-15T01:08:28.949Z,20.37
2023-06-15T01:10:57.404Z,20.11
2023-06-15T01:13:24.684Z,20.01
2023-06-15T01:15:57.547Z,19.82
2023-06-15T01:18:26.970Z,20.00
2023-06-15T01:20:55.010Z,19.02
2023-06-15T01:23:52.002Z,19.31
2023-06-15T01:26:25.141Z,19.30
2023-06-15T01:28:54.104Z,20.00
2023-06-15T01:31:21.530Z,19.45
2023-06-15T01:33:51.877Z,19.79
2023-06-15T01:36:20.763Z,20.58
2023-06-15T01:38:53.435Z,19.92
2023-06-15T01:41:24.218Z,19.67
2023-06-15T01:43:52.832Z,20.43
2023-06-15T01:46:22.673Z,19.55
2023-06-15T01:48:50.958Z,19.65
2023-06-15T01:51:19.887Z,19.70
2023-06-15T01:53:47.200Z,19.26
2023-06-15T01:56:15.806Z,19.97
2023-06-15T01:58:42.957Z,19.08
2023-06-15T02:01:10.079Z,19.17
2023-06-15T02:03:37.324Z,19.30
2023-06-15T02:06:04.474Z,19.47
2023-06-15T02:08:31.710Z,19.74
2023-06-15T02:10:58.927Z,19.40
2023-06-15T02:13:26.154Z,19.88
2023-06-15T02:15:53.314Z,20.13
2023-06-15T02:18:20.540Z,19.70
2023-06-15T02:20:47.775Z,18.89
2023-06-15T02:23:15.074Z,20.09
2023-06-15T02:25:42.304Z,19.91
2023-06-15T02:28:09.520Z,19.29
2023-06-15T02:30:36.670Z,19.63
2023-06-15T02:33:05.409Z,18.86
2023-06-15T02:35:32.691Z,19.27
2023-06-15T02:37:59.852Z,18.96
2023-06-15T02:40:26.936Z,19.07
2023-06-15T02:42:56.191Z,19.04
2023-06-15T02:45:23.540Z,19.17
2023-06-15T02:47:50.780Z,19.07
2023-06-15T02:50:19.061Z,19.79
2023-06-15T02:52:46.856Z,19.30
2023-06-15T02:55:14.702Z,19.47
2023-06-15T02:57:42.756Z,19.08
2023-06-15T03:00:14.929Z,19.12
2023-06-15T03:02:51.363Z,18.91
2023-06-15T03:05:19.636Z,19.60
2023-06-15T03:07:47.616Z,19.09
2023-06-15T03:10:14.852Z,19.05
2023-06-15T03:12:42.034Z,19.11
2023-06-15T03:15:10.602Z,19.77
2023-06-15T03:17:37.822Z,19.86
2023-06-15T03:20:08.891Z,19.79
2023-06-15T03:22:36.428Z,19.47
2023-06-15T03:25:04.178Z,19.94
2023-06-15T03:27:33.775Z,19.89
2023-06-15T03:30:02.693Z,19.62
2023-06-15T03:32:30.398Z,19.68
2023-06-15T03:34:58.534Z,20.08
2023-06-15T03:37:26.083Z,19.64
2023-06-15T03:39:53.238Z,18.81
2023-06-15T03:42:20.576Z,19.07
2023-06-15T03:44:47.852Z,19.28
2023-06-15T03:47:15.489Z,19.51
2023-06-15T03:49:42.735Z,19.32
2023-06-15T03:52:09.920Z,18.69
2023-06-15T03:54:37.162Z,18.83
2023-06-15T03:57:04.671Z,18.81
2023-06-15T03:59:31.924Z,19.07
2023-06-15T04:01:59.316Z,18.90
2023-06-15T04:04:26.425Z,19.20
2023-06-15T04:06:58.887Z,19.84
2023-06-15T04:09:26.039Z,20.14
2023-06-15T04:11:54.358Z,19.80
2023-06-15T04:14:21.531Z,19.67
2023-06-15T04:16:48.685Z,20.36
2023-06-15T04:19:17.123Z,20.35
2023-06-15T04:21:44.900Z,20.72
2023-06-15T04:24:12.202Z,20.74
2023-06-15T04:26:43.017Z,20.19
2023-06-15T04:29:10.616Z,21.44
2023-06-15T04:31:41.163Z,20.51
2023-06-15T04:34:08.999Z,20.90
2023-06-15T04:36:40.196Z,20.18
2023-06-15T04:39:07.397Z,19.89
2023-06-15T04:41:36.372Z,20.63
2023-06-15T04:44:03.619Z,19.67
2023-06-15T04:46:30.996Z,19.11
2023-06-15T04:48:58.546Z,18.82
2023-06-15T04:51:27.584Z,19.29
2023-06-15T04:53:55.813Z,20.07
2023-06-15T04:56:23.850Z,19.58
2023-06-15T04:58:51.521Z,19.81
2023-06-15T05:01:18.661Z,19.89
2023-06-15T05:03:46.773Z,19.82
2023-06-15T05:06:14.238Z,20.14
2023-06-15T05:08:41.422Z,19.63
2023-06-15T05:11:08.594Z,20.30
2023-06-15T05:13:35.816Z,19.78
2023-06-15T05:16:03.106Z,19.83
2023-06-15T05:18:30.294Z,19.92
2023-06-15T05:20:57.665Z,19.54
2023-06-15T05:23:24.810Z,20.07
2023-06-15T05:25:52.708Z,19.90
2023-06-15T05:28:20.620Z,20.39
2023-06-15T05:30:47.780Z,20.32
2023-06-15T05:33:15.082Z,19.22
2023-06-15T05:35:42.322Z,19.98
2023-06-15T05:38:10.484Z,19.95
2023-06-15T05:40:37.859Z,20.54
2023-06-15T05:43:05.264Z,20.32
2023-06-15T05:45:32.406Z,19.59
2023-06-15T05:47:59.923Z,19.62
2023-06-15T05:50:27.044Z,21.56
2023-06-15T05:52:54.167Z,21.26
2023-06-15T05:55:24.682Z,20.26
2023-06-15T05:57:52.122Z,20.52
2023-06-15T06:00:20.131Z,21.71
2023-06-15T06:02:50.448Z,23.13
2023-06-15T06:05:17.908Z,23.69
2023-06-15T06:07:48.476Z,23.28
2023-06-15T06:10:19.827Z,21.31
2023-06-15T06:12:47.255Z,22.95
2023-06-15T06:15:16.807Z,22.93
2023-06-15T06:17:59.314Z,21.98
2023-06-15T06:20:30.759Z,21.86
2023-06-15T06:22:58.025Z,21.97
2023-06-15T06:25:25.580Z,22.44
2023-06-15T06:27:52.690Z,21.25
2023-06-15T06:30:19.933Z,22.66
2023-06-15T06:32:47.151Z,23.27
2023-06-15T06:35:14.646Z,23.79
2023-06-15T06:37:42.001Z,21.74
2023-06-15T06:40:10.079Z,22.41
2023-06-15T06:42:37.261Z,21.96
2023-06-15T06:45:05.088Z,22.38
2023-06-15T06:47:32.279Z,23.40
2023-06-15T06:50:02.292Z,23.78
2023-06-15T06:52:29.448Z,22.84
2023-06-15T06:54:56.602Z,21.40
2023-06-15T06:57:25.429Z,20.86
2023-06-15T06:59:54.432Z,21.39
2023-06-15T07:02:21.623Z,21.81
2023-06-15T07:04:49.483Z,21.78
2023-06-15T07:07:16.783Z,23.32
2023-06-15T07:09:43.954Z,23.65
2023-06-15T07:12:11.527Z,24.03
2023-06-15T07:14:38.738Z,24.23
2023-06-15T07:17:06.272Z,24.54
2023-06-15T07:19:33.420Z,24.32
2023-06-15T07:22:00.621Z,23.98
2023-06-15T07:24:29.227Z,24.30
2023-06-15T07:26:57.687Z,25.11
2023-06-15T07:29:26.059Z,24.47
2023-06-15T07:31:53.526Z,24.47
2023-06-15T07:34:20.811Z,24.34
2023-06-15T07:36:48.218Z,23.18
2023-06-15T07:39:15.557Z,23.36
2023-06-15T07:41:45.689Z,22.74
2023-06-15T07:44:13.677Z,22.75
2023-06-15T07:46:41.617Z,23.40
2023-06-15T07:49:08.952Z,23.04
2023-06-15T07:51:43.422Z,24.08
2023-06-15T07:54:18.640Z,24.26
2023-06-15T07:56:46.542Z,23.43
2023-06-15T07:59:15.436Z,23.52
2023-06-15T08:01:43.719Z,23.99
2023-06-15T08:04:11.135Z,23.09
2023-06-15T08:06:41.304Z,23.78
2023-06-15T08:09:08.485Z,24.09
2023-06-15T08:11:35.625Z,24.45
2023-06-15T08:14:02.942Z,24.71
2023-06-15T08:16:30.045Z,25.67
2023-06-15T08:18:57.190Z,24.20
2023-06-15T08:21:24.513Z,24.35
2023-06-15T08:23:52.080Z,24.70
2023-06-15T08:26:19.199Z,25.28
2023-06-15T08:28:54.196Z,24.62
2023-06-15T08:31:24.063Z,25.14
2023-06-15T08:33:51.352Z,24.26
2023-06-15T08:36:18.626Z,24.62
2023-06-15T08:38:46.080Z,24.63
2023-06-15T08:41:13.825Z,25.24
2023-06-15T08:43:46.492Z,24.89
2023-06-15T08:46:14.284Z,25.27
2023-06-15T08:48:44.262Z,25.13
2023-06-15T08:51:13.685Z,24.39
2023-06-15T08:53:49.131Z,24.88
2023-06-15T08:56:16.467Z,25.05
2023-06-15T08:58:50.763Z,25.12
2023-06-15T09:01:26.584Z,25.20
2023-06-15T09:03:56.366Z,25.98
2023-06-15T09:06:24.707Z,25.89
2023-06-15T09:08:55.268Z,25.40
2023-06-15T09:11:24.618Z,25.39
2023-06-15T09:13:52.210Z,25.47
2023-06-15T09:16:19.887Z,25.62
2023-06-15T09:18:54.210Z,25.03
2023-06-15T09:21:24.290Z,24.71
2023-06-15T09:23:51.854Z,24.69
2023-06-15T09:26:28.944Z,24.31
2023-06-15T09:28:58.542Z,24.51
2023-06-15T09:31:49.129Z,25.15
2023-06-15T09:34:16.292Z,25.29
2023-06-15T09:36:49.259Z,24.87
2023-06-15T09:39:24.574Z,25.19
2023-06-15T09:41:53.491Z,24.86
2023-06-15T09:44:24.532Z,24.98
2023-06-15T09:46:53.692Z,25.27
2023-06-15T09:49:27.934Z,24.25
2023-06-15T09:51:57.043Z,24.59
2023-06-15T09:54:31.858Z,24.82
2023-06-15T09:57:02.460Z,24.23
2023-06-15T09:59:29.794Z,24.18
2023-06-15T10:02:00.431Z,24.63
2023-06-15T10:04:33.045Z,24.78
2023-06-15T10:07:04.604Z,25.17
2023-06-15T10:09:46.684Z,24.50
2023-06-15T10:12:28.545Z,24.75
2023-06-15T10:15:10.259Z,24.79
2023-06-15T10:17:42.197Z,24.42
2023-06-15T10:20:18.906Z,25.33
2023-06-15T10:23:08.604Z,25.82
2023-06-15T10:25:37.455Z,25.08
2023-06-15T10:28:10.913Z,24.20
2023-06-15T10:31:08.681Z,25.33
2023-06-15T10:34:08.524Z,24.77
2023-06-15T10:36:52.921Z,25.38
2023-06-15T10:39:33.470Z,25.59
2023-06-15T10:42:06.393Z,25.55
2023-06-15T10:44:34.635Z,25.30
2023-06-15T10:47:21.231Z,24.91
2023-06-15T10:49:57.249Z,24.67
2023-06-15T10:52:34.184Z,24.39
2023-06-15T10:55:07.142Z,25.40
2023-06-15T10:57:37.281Z,26.25
2023-06-15T11:00:05.987Z,25.16
2023-06-15T11:02:33.037Z,26.38
2023-06-15T11:05:13.549Z,25.64
2023-06-15T11:07:48.386Z,24.64
2023-06-15T11:10:38.468Z,24.36
2023-06-15T11:13:07.148Z,25.51
2023-06-15T11:15:37.839Z,26.27
2023-06-15T11:18:18.756Z,25.73
2023-06-15T11:20:55.802Z,26.59
2023-06-15T11:23:25.410Z,27.86
2023-06-15T11:25:55.503Z,28.11
2023-06-15T11:28:37.611Z,28.51
2023-06-15T11:31:09.540Z,27.60
2023-06-15T11:33:43.637Z,28.45
2023-06-15T11:36:12.552Z,30.05
2023-06-15T11:38:39.783Z,30.83
2023-06-15T11:41:12.241Z,27.76
2023-06-15T11:43:50.449Z,29.72
2023-06-15T11:46:23.647Z,30.24
2023-06-15T11:48:57.275Z,30.91
2023-06-15T11:51:24.991Z,29.40
2023-06-15T11:53:54.585Z,27.66
2023-06-15T11:56:23.072Z,28.03
2023-06-15T11:58:51.444Z,27.86
2023-06-15T12:01:19.692Z,26.65
2023-06-15T12:06:22.964Z,25.82
2023-06-15T12:08:56.016Z,27.92
2023-06-15T12:11:27.156Z,27.63
2023-06-15T12:14:00.416Z,26.65
2023-06-15T12:16:27.985Z,25.96
2023-06-15T12:18:56.416Z,28.31
2023-06-15T12:21:23.768Z,28.20
2023-06-15T12:23:52.245Z,28.47
2023-06-15T12:26:21.753Z,28.79
2023-06-15T12:28:53.252Z,27.72
2023-06-15T12:31:20.370Z,27.11
2023-06-15T12:33:54.560Z,26.65
2023-06-15T12:36:23.610Z,27.52
2023-06-15T12:38:51.164Z,27.18
2023-06-15T12:41:19.469Z,27.37
2023-06-15T12:43:46.774Z,27.56
2023-06-15T12:46:14.250Z,27.70
2023-06-15T12:48:41.632Z,27.87
2023-06-15T12:51:08.774Z,28.34
2023-06-15T12:53:38.255Z,27.65
2023-06-15T12:56:06.909Z,28.50
2023-06-15T12:58:34.110Z,28.76
2023-06-15T13:01:01.603Z,27.27
2023-06-15T13:03:28.996Z,27.01
2023-06-15T13:05:56.327Z,27.41
2023-06-15T13:08:23.478Z,29.54
2023-06-15T13:10:50.652Z,28.06
2023-06-15T13:13:18.245Z,27.33
2023-06-15T13:15:46.543Z,27.83
2023-06-15T13:18:15.028Z,30.72
2023-06-15T13:20:42.328Z,31.42
2023-06-15T13:23:09.743Z,30.78
2023-06-15T13:25:36.940Z,30.95
2023-06-15T13:28:04.338Z,30.47
2023-06-15T13:30:31.468Z,30.37
2023-06-15T13:32:58.772Z,31.66
2023-06-15T13:35:26.022Z,30.98
2023-06-15T13:37:53.231Z,29.32
2023-06-15T13:40:22.773Z,28.55
2023-06-15T13:42:49.991Z,27.23
2023-06-15T13:45:19.094Z,27.42
2023-06-15T13:47:47.202Z,26.15
2023-06-15T13:50:18.365Z,25.12
2023-06-15T13:52:48.115Z,24.65
2023-06-15T13:55:17.693Z,24.39
2023-06-15T13:57:46.831Z,24.46
2023-06-15T14:00:15.836Z,23.45
2023-06-15T14:02:44.430Z,24.42
2023-06-15T14:05:13.794Z,23.84
2023-06-15T14:07:41.479Z,24.31
2023-06-15T14:10:10.048Z,25.03
2023-06-15T14:12:37.822Z,25.13
2023-06-15T14:15:07.827Z,25.12
2023-06-15T14:17:35.412Z,25.23
2023-06-15T14:20:03.771Z,25.30
2023-06-15T14:22:31.858Z,25.09
2023-06-15T14:24:59.369Z,25.84
2023-06-15T14:27:34.871Z,25.72
2023-06-15T14:30:02.282Z,25.77
2023-06-15T14:32:32.530Z,26.38
2023-06-15T14:35:02.208Z,26.36
2023-06-15T14:37:30.051Z,26.38
2023-06-15T14:39:57.392Z,26.90
2023-06-15T14:42:31.781Z,27.03
2023-06-15T14:44:59.243Z,27.15
2023-06-15T14:47:27.262Z,25.83
2023-06-15T14:49:54.737Z,26.93
2023-06-15T14:52:21.984Z,27.56
2023-06-15T14:54:49.180Z,27.60
2023-06-15T14:57:16.423Z,26.29
2023-06-15T14:59:43.775Z,27.81
2023-06-15T15:02:11.082Z,28.07
2023-06-15T15:04:38.530Z,28.03
2023-06-15T15:07:05.865Z,27.58
2023-06-15T15:09:33.002Z,27.31
2023-06-15T15:12:00.468Z,26.61
2023-06-15T15:14:27.581Z,27.11
2023-06-15T15:16:55.667Z,27.40
2023-06-15T15:19:23.117Z,27.42
2023-06-15T15:21:50.867Z,27.87
2023-06-15T15:24:18.261Z,27.37
2023-06-15T15:26:45.677Z,27.52
2023-06-15T15:29:13.178Z,27.70
2023-06-15T15:31:40.574Z,27.76
2023-06-15T15:34:08.026Z,27.52
2023-06-15T15:36:38.461Z,26.99
2023-06-15T15:39:05.970Z,27.72
2023-06-15T15:41:36.138Z,27.58
2023-06-15T15:44:03.393Z,27.66
2023-06-15T15:46:30.732Z,28.76
2023-06-15T15:48:57.900Z,28.88
2023-06-15T15:51:26.382Z,26.13
2023-06-15T15:53:53.571Z,25.17
2023-06-15T15:56:20.738Z,25.45
2023-06-15T15:58:47.932Z,24.07
2023-06-15T16:01:17.076Z,24.32
2023-06-15T16:03:44.525Z,23.97
2023-06-15T16:06:11.898Z,24.38
2023-06-15T16:08:39.113Z,24.10
2023-06-15T16:11:06.290Z,24.42
2023-06-15T16:13:33.504Z,24.75
2023-06-15T16:16:20.933Z,23.94
2023-06-15T16:18:49.505Z,23.53
2023-06-15T16:21:16.705Z,23.18
2023-06-15T16:23:47.141Z,22.62
2023-06-15T16:26:14.340Z,22.71
2023-06-15T16:28:41.588Z,23.01
2023-06-15T16:31:08.835Z,23.63
2023-06-15T16:33:35.990Z,23.25
2023-06-15T16:36:03.257Z,23.11
2023-06-15T16:38:30.476Z,23.22
2023-06-15T16:40:57.730Z,24.27
2023-06-15T16:43:24.792Z,24.40
2023-06-15T16:45:52.190Z,23.56
2023-06-15T16:48:19.393Z,25.43
2023-06-15T16:50:46.661Z,24.81
2023-06-15T16:53:14.041Z,23.71
2023-06-15T16:55:41.395Z,23.91
2023-06-15T16:58:08.584Z,23.81
2023-06-15T17:00:36.068Z,23.70
2023-06-15T17:03:03.941Z,23.65
2023-06-15T17:05:31.402Z,23.66
2023-06-15T17:07:58.508Z,23.53
2023-06-15T17:10:25.732Z,24.24
2023-06-15T17:12:52.843Z,24.37
2023-06-15T17:15:20.158Z,24.30
2023-06-15T17:17:47.397Z,24.33
2023-06-15T17:20:14.587Z,24.18
2023-06-15T17:22:42.274Z,24.29
2023-06-15T17:25:10.319Z,24.70
2023-06-15T17:27:37.698Z,24.27
2023-06-15T17:30:06.137Z,24.25
2023-06-15T17:32:33.942Z,24.27
2023-06-15T17:35:01.106Z,24.27
2023-06-15T17:37:28.272Z,23.76
2023-06-15T17:39:55.447Z,23.57
2023-06-15T17:42:22.569Z,23.85
2023-06-15T17:44:49.820Z,24.36
2023-06-15T17:47:16.960Z,23.56
2023-06-15T17:49:44.121Z,23.13
2023-06-15T17:52:11.308Z,22.52
2023-06-15T17:54:38.694Z,22.76
2023-06-15T17:57:06.287Z,23.37
2023-06-15T17:59:35.250Z,23.21
2023-06-15T18:02:03.843Z,23.01
2023-06-15T18:04:30.974Z,22.98
2023-06-15T18:06:58.100Z,23.16
2023-06-15T18:09:25.424Z,22.83
2023-06-15T18:11:52.554Z,22.76
2023-06-15T18:14:19.779Z,22.91
2023-06-15T18:16:46.978Z,23.16
2023-06-15T18:19:14.256Z,22.89
2023-06-15T18:21:41.769Z,22.97
2023-06-15T18:24:12.624Z,22.85
2023-06-15T18:26:48.354Z,23.16
2023-06-15T18:29:17.217Z,23.00
2023-06-15T18:31:45.257Z,22.99
2023-06-15T18:34:16.287Z,23.12
2023-06-15T18:36:43.992Z,23.48
2023-06-15T18:39:11.734Z,22.99
2023-06-15T18:41:39.370Z,22.66
2023-06-15T18:44:06.931Z,22.64
2023-06-15T18:46:34.195Z,22.49
2023-06-15T18:49:01.639Z,22.57
2023-06-15T18:51:29.001Z,22.30
2023-06-15T18:53:56.288Z,22.86
2023-06-15T18:56:23.894Z,22.93
2023-06-15T18:58:51.455Z,22.91
2023-06-15T19:01:18.711Z,22.96
2023-06-15T19:03:46.094Z,22.88
2023-06-15T19:06:13.382Z,22.63
2023-06-15T19:08:40.680Z,22.57
2023-06-15T19:11:09.959Z,22.57
2023-06-15T19:13:37.937Z,22.33
2023-06-15T19:16:06.224Z,21.93
2023-06-15T19:18:33.599Z,22.15
2023-06-15T19:21:03.276Z,22.00
2023-06-15T19:23:30.377Z,22.16
2023-06-15T19:25:57.607Z,22.10
2023-06-15T19:28:25.506Z,22.35
2023-06-15T19:30:52.627Z,22.90
2023-06-15T19:33:19.964Z,22.58
2023-06-15T19:35:47.122Z,23.10
2023-06-15T19:38:14.297Z,23.41
2023-06-15T19:40:41.487Z,23.59
2023-06-15T19:43:09.747Z,23.22
2023-06-15T19:45:36.887Z,22.26
2023-06-15T19:48:04.636Z,22.00
2023-06-15T19:50:32.041Z,21.85
2023-06-15T19:52:59.224Z,21.62
2023-06-15T19:55:26.408Z,21.79
2023-06-15T19:57:53.522Z,21.97
2023-06-15T20:00:21.853Z,22.21
2023-06-15T20:02:50.126Z,22.69
2023-06-15T20:05:17.309Z,23.05
2023-06-15T20:07:44.419Z,23.41
2023-06-15T20:10:12.286Z,23.58
2023-06-15T20:12:39.439Z,22.67
2023-06-15T20:15:07.555Z,22.39
2023-06-15T20:17:34.741Z,22.96
2023-06-15T20:20:01.966Z,23.26
2023-06-15T20:22:29.128Z,23.41
2023-06-15T20:24:57.568Z,22.85
2023-06-15T20:27:24.715Z,22.70
2023-06-15T20:29:51.805Z,22.71
2023-06-15T20:32:21.800Z,22.88
2023-06-15T20:34:48.893Z,23.11
2023-06-15T20:37:16.032Z,22.88
2023-06-15T20:39:46.323Z,22.85
2023-06-15T20:42:15.883Z,23.20
2023-06-15T20:44:43.039Z,23.16
2023-06-15T20:47:10.686Z,23.11
2023-06-15T20:49:38.210Z,23.08
2023-06-15T20:52:05.730Z,23.15
2023-06-15T20:54:35.233Z,22.85
2023-06-15T20:57:02.378Z,22.10
2023-06-15T20:59:29.636Z,21.97
2023-06-15T21:04:25.632Z,22.79
2023-06-15T21:06:55.863Z,22.74
2023-06-15T21:09:25.470Z,21.81
2023-06-15T21:11:52.716Z,22.45
2023-06-15T21:14:19.900Z,21.66
2023-06-15T21:16:47.042Z,22.06
2023-06-15T21:19:14.319Z,22.26
2023-06-15T21:21:43.027Z,22.22
2023-06-15T21:24:13.962Z,22.56
2023-06-15T21:26:41.158Z,22.66
2023-06-15T21:29:08.379Z,22.89
2023-06-15T21:31:39.269Z,21.97
2023-06-15T21:34:06.549Z,22.16
2023-06-15T21:36:33.713Z,22.26
2023-06-15T21:39:00.953Z,22.50
2023-06-15T21:41:31.217Z,22.42
2023-06-15T21:43:59.086Z,21.98
2023-06-15T21:46:26.955Z,21.86
2023-06-15T21:48:54.247Z,22.37
2023-06-15T21:51:21.550Z,22.71
2023-06-15T21:53:48.857Z,22.41
2023-06-15T21:56:16.136Z,22.60
2023-06-15T21:58:43.536Z,22.54
2023-06-15T22:01:11.160Z,21.86
2023-06-15T22:03:40.091Z,21.03
2023-06-15T22:06:10.609Z,20.63
2023-06-15T22:08:37.763Z,20.68
2023-06-15T22:11:05.278Z,20.81
2023-06-15T22:13:35.502Z,20.82
2023-06-15T22:16:02.840Z,21.17
2023-06-15T22:18:30.880Z,21.47
2023-06-15T22:20:58.763Z,21.39
2023-06-15T22:23:27.815Z,21.54
2023-06-15T22:25:56.778Z,22.07
2023-06-15T22:28:25.365Z,22.47
2023-06-15T22:30:53.037Z,22.54
2023-06-15T22:33:24.452Z,22.61
2023-06-15T22:35:52.020Z,22.17
2023-06-15T22:38:19.191Z,21.70
2023-06-15T22:40:46.581Z,21.88
2023-06-15T22:43:13.957Z,22.23
2023-06-15T22:45:41.203Z,22.23
2023-06-15T22:48:08.423Z,22.19
2023-06-15T22:50:35.643Z,21.99
2023-06-15T22:53:03.332Z,22.21
2023-06-15T22:55:31.302Z,22.27
2023-06-15T22:57:58.867Z,22.14
2023-06-15T23:00:26.172Z,22.35
2023-06-15T23:05:23.811Z,22.55
2023-06-15T23:07:52.493Z,22.62
2023-06-15T23:10:21.783Z,21.64
2023-06-15T23:12:51.461Z,22.10
2023-06-15T23:15:22.894Z,22.24
2023-06-15T23:17:53.376Z,22.23
2023-06-15T23:20:21.292Z,22.20
2023-06-15T23:22:52.991Z,22.21
2023-06-15T23:25:23.989Z,22.28
2023-06-15T23:27:55.134Z,22.32
2023-06-15T23:30:25.093Z,21.64
2023-06-15T23:32:52.290Z,21.37
2023-06-15T23:35:19.468Z,21.63
2023-06-15T23:37:46.606Z,22.02
2023-06-15T23:40:13.909Z,22.19
2023-06-15T23:42:41.042Z,21.95
2023-06-15T23:45:08.736Z,21.93
2023-06-15T23:47:35.886Z,22.15
2023-06-15T23:50:06.488Z,22.01
2023-06-15T23:52:33.592Z,22.20
2023-06-15T23:55:00.702Z,22.24
2023-06-15T23:57:27.837Z,22.25
2023-06-15T23:59:54.976Z,22.29
